sensor_id;sensor_type;location;lat;lon;timestamp;temperature;humidity
1383;DHT22;685;47.196;11.880;2022-08-19T00:01:24;17.60;99.90
1383;DHT22;685;47.196;11.880;2022-08-19T00:03:51;17.40;99.90
1383;DHT22;685;47.196;11.880;2022-08-19T00:06:18;16.90;99.90
1383;DHT22;685;47.196;11.880;2022-08-19T00:08:45;16.90;99.90
1383;DHT22;685;47.196;11.880;2022-08-19T00:11:12;17.10;99.90
1383;DHT22;685;47.196;11.880;2022-08-19T00:13:40;17.30;99.90
1383;DHT22;685;47.196;11.880;2022-08-19T00:16:07;17.60;99.90
1383;DHT22;685;47.196;11.880;2022-08-19T00:18:35;17.60;99.90
1383;DHT22;685;47.196;11.880;2022-08-19T00:21:02;17.50;99.90
1383;DHT22;685;47.196;11.880;2022-08-19T00:23:34;17.60;99.90
1383;DHT22;685;47.196;11.880;2022-08-19T00:26:02;17.00;99.90
1383;DHT22;685;47.196;11.880;2022-08-19T00:28:29;16.50;99.90
1383;DHT22;685;47.196;11.880;2022-08-19T00:30:56;16.90;99.90
1383;DHT22;685;47.196;11.880;2022-08-19T00:33:23;16.90;99.90
1383;DHT22;685;47.196;11.880;2022-08-19T00:35:52;16.80;99.90
1383;DHT22;685;47.196;11.880;2022-08-19T00:38:19;16.90;99.90
1383;DHT22;685;47.196;11.880;2022-08-19T00:40:48;17.10;99.90
1383;DHT22;685;47.196;11.880;2022-08-19T00:43:19;17.40;99.90
1383;DHT22;685;47.196;11.880;2022-08-19T00:45:47;17.50;99.90
1383;DHT22;685;47.196;11.880;2022-08-19T00:48:15;17.60;99.90
1383;DHT22;685;47.196;11.880;2022-08-19T00:50:43;17.60;99.90
1383;DHT22;685;47.196;11.880;2022-08-19T00:53:15;17.60;99.90
1383;DHT22;685;47.196;11.880;2022-08-19T00:55:45;17.60;99.90
1383;DHT22;685;47.196;11.880;2022-08-19T00:58:16;17.60;99.90
1383;DHT22;685;47.196;11.880;2022-08-19T01:00:45;17.60;99.90
1383;DHT22;685;47.196;11.880;2022-08-19T01:03:17;16.70;99.90
1383;DHT22;685;47.196;11.880;2022-08-19T01:05:46;16.70;99.90
1383;DHT22;685;47.196;11.880;2022-08-19T01:08:16;16.60;99.90
1383;DHT22;685;47.196;11.880;2022-08-19T01:10:47;16.60;99.90
1383;DHT22;685;47.196;11.880;2022-08-19T01:13:16;16.70;99.90
1383;DHT22;685;47.196;11.880;2022-08-19T01:15:46;16.90;99.90
1383;DHT22;685;47.196;11.880;2022-08-19T01:18:16;17.00;99.90
1383;DHT22;685;47.196;11.880;2022-08-19T01:20:44;17.40;99.90
1383;DHT22;685;47.196;11.880;2022-08-19T01:23:14;17.50;99.90
1383;DHT22;685;47.196;11.880;2022-08-19T01:25:43;17.40;99.90
1383;DHT22;685;47.196;11.880;2022-08-19T01:28:16;17.60;99.90
1383;DHT22;685;47.196;11.880;2022-08-19T01:30:45;17.60;99.90
1383;DHT22;685;47.196;11.880;2022-08-19T01:33:13;17.70;99.90
1383;DHT22;685;47.196;11.880;2022-08-19T01:35:41;17.60;99.90
1383;DHT22;685;47.196;11.880;2022-08-19T01:38:10;17.70;99.90
1383;DHT22;685;47.196;11.880;2022-08-19T01:40:46;17.50;99.90
1383;DHT22;685;47.196;11.880;2022-08-19T01:43:13;17.30;99.90
1383;DHT22;685;47.196;11.880;2022-08-19T01:45:41;17.30;99.90
1383;DHT22;685;47.196;11.880;2022-08-19T01:48:08;17.40;99.90
1383;DHT22;685;47.196;11.880;2022-08-19T01:50:36;17.30;99.90
1383;DHT22;685;47.196;11.880;2022-08-19T01:53:05;17.50;99.90
1383;DHT22;685;47.196;11.880;2022-08-19T01:55:35;17.50;99.90
1383;DHT22;685;47.196;11.880;2022-08-19T01:58:05;17.40;99.90
1383;DHT22;685;47.196;11.880;2022-08-19T02:00:33;17.40;99.90
1383;DHT22;685;47.196;11.880;2022-08-19T02:03:00;17.50;99.90
1383;DHT22;685;47.196;11.880;2022-08-19T02:05:28;17.60;99.90
1383;DHT22;685;47.196;11.880;2022-08-19T02:07:55;17.50;99.90
1383;DHT22;685;47.196;11.880;2022-08-19T02:10:23;17.40;99.90
1383;DHT22;685;47.196;11.880;2022-08-19T02:12:50;17.40;99.90
1383;DHT22;685;47.196;11.880;2022-08-19T02:15:20;17.50;99.90
1383;DHT22;685;47.196;11.880;2022-08-19T02:17:47;17.50;99.90
1383;DHT22;685;47.196;11.880;2022-08-19T02:20:15;17.70;99.90
1383;DHT22;685;47.196;11.880;2022-08-19T02:22:43;17.40;99.90
1383;DHT22;685;47.196;11.880;2022-08-19T02:25:11;17.40;99.90
1383;DHT22;685;47.196;11.880;2022-08-19T02:27:39;17.30;99.90
1383;DHT22;685;47.196;11.880;2022-08-19T02:30:11;17.20;99.90
1383;DHT22;685;47.196;11.880;2022-08-19T02:32:40;17.20;99.90
1383;DHT22;685;47.196;11.880;2022-08-19T02:35:08;17.30;99.90
1383;DHT22;685;47.196;11.880;2022-08-19T02:37:35;17.40;99.90
1383;DHT22;685;47.196;11.880;2022-08-19T02:40:19;17.50;99.90
1383;DHT22;685;47.196;11.880;2022-08-19T02:42:46;17.50;99.90
1383;DHT22;685;47.196;11.880;2022-08-19T02:45:14;17.40;99.90
1383;DHT22;685;47.196;11.880;2022-08-19T02:47:42;17.50;99.90
1383;DHT22;685;47.196;11.880;2022-08-19T02:50:10;17.50;99.90
1383;DHT22;685;47.196;11.880;2022-08-19T02:52:37;17.60;99.90
1383;DHT22;685;47.196;11.880;2022-08-19T02:55:05;17.60;99.90
1383;DHT22;685;47.196;11.880;2022-08-19T02:57:32;17.50;99.90
1383;DHT22;685;47.196;11.880;2022-08-19T03:00:00;17.50;99.90
1383;DHT22;685;47.196;11.880;2022-08-19T03:02:27;17.50;99.90
1383;DHT22;685;47.196;11.880;2022-08-19T03:04:57;17.50;99.90
1383;DHT22;685;47.196;11.880;2022-08-19T03:07:24;17.70;99.90
1383;DHT22;685;47.196;11.880;2022-08-19T03:09:51;17.60;99.90
1383;DHT22;685;47.196;11.880;2022-08-19T03:12:18;17.70;99.90
1383;DHT22;685;47.196;11.880;2022-08-19T03:14:45;17.60;99.90
1383;DHT22;685;47.196;11.880;2022-08-19T03:17:12;17.60;99.90
1383;DHT22;685;47.196;11.880;2022-08-19T03:19:39;17.60;99.90
1383;DHT22;685;47.196;11.880;2022-08-19T03:22:07;17.60;99.90
1383;DHT22;685;47.196;11.880;2022-08-19T03:24:34;17.60;99.90
1383;DHT22;685;47.196;11.880;2022-08-19T03:27:01;17.70;99.90
1383;DHT22;685;47.196;11.880;2022-08-19T03:29:31;17.90;99.90
1383;DHT22;685;47.196;11.880;2022-08-19T03:31:59;17.80;99.90
1383;DHT22;685;47.196;11.880;2022-08-19T03:34:29;17.60;99.90
1383;DHT22;685;47.196;11.880;2022-08-19T03:36:59;17.40;99.90
1383;DHT22;685;47.196;11.880;2022-08-19T03:39:28;17.30;99.90
1383;DHT22;685;47.196;11.880;2022-08-19T03:41:55;17.00;99.90
1383;DHT22;685;47.196;11.880;2022-08-19T03:44:26;17.00;99.90
1383;DHT22;685;47.196;11.880;2022-08-19T03:46:55;17.10;99.90
1383;DHT22;685;47.196;11.880;2022-08-19T03:49:23;17.20;99.90
1383;DHT22;685;47.196;11.880;2022-08-19T03:51:50;17.30;99.90
1383;DHT22;685;47.196;11.880;2022-08-19T03:54:20;17.50;99.90
1383;DHT22;685;47.196;11.880;2022-08-19T03:56:51;17.50;99.90
1383;DHT22;685;47.196;11.880;2022-08-19T03:59:20;17.70;99.90
1383;DHT22;685;47.196;11.880;2022-08-19T04:01:50;17.70;99.90
1383;DHT22;685;47.196;11.880;2022-08-19T04:04:17;17.70;99.90
1383;DHT22;685;47.196;11.880;2022-08-19T04:06:44;17.60;99.90
1383;DHT22;685;47.196;11.880;2022-08-19T04:09:13;17.70;99.90
1383;DHT22;685;47.196;11.880;2022-08-19T04:11:42;17.80;99.90
1383;DHT22;685;47.196;11.880;2022-08-19T04:14:13;17.90;99.90
1383;DHT22;685;47.196;11.880;2022-08-19T04:16:41;17.80;99.90
1383;DHT22;685;47.196;11.880;2022-08-19T04:19:09;17.70;99.90
1383;DHT22;685;47.196;11.880;2022-08-19T04:21:36;17.70;99.90
1383;DHT22;685;47.196;11.880;2022-08-19T04:24:04;17.60;99.90
1383;DHT22;685;47.196;11.880;2022-08-19T04:26:33;17.50;99.90
1383;DHT22;685;47.196;11.880;2022-08-19T04:29:01;17.10;99.90
1383;DHT22;685;47.196;11.880;2022-08-19T04:31:31;17.20;99.90
1383;DHT22;685;47.196;11.880;2022-08-19T04:34:02;17.30;99.90
1383;DHT22;685;47.196;11.880;2022-08-19T04:36:32;17.40;99.90
1383;DHT22;685;47.196;11.880;2022-08-19T04:39:00;17.70;99.90
1383;DHT22;685;47.196;11.880;2022-08-19T04:41:28;17.90;99.90
1383;DHT22;685;47.196;11.880;2022-08-19T04:44:13;17.80;99.90
1383;DHT22;685;47.196;11.880;2022-08-19T04:46:45;17.80;99.90
1383;DHT22;685;47.196;11.880;2022-08-19T04:49:13;17.80;99.90
1383;DHT22;685;47.196;11.880;2022-08-19T04:51:41;17.70;99.90
1383;DHT22;685;47.196;11.880;2022-08-19T04:54:09;17.60;99.90
1383;DHT22;685;47.196;11.880;2022-08-19T04:56:36;17.50;99.90
1383;DHT22;685;47.196;11.880;2022-08-19T04:59:03;17.40;99.90
1383;DHT22;685;47.196;11.880;2022-08-19T05:01:32;17.30;99.90
1383;DHT22;685;47.196;11.880;2022-08-19T05:04:01;17.40;99.90
1383;DHT22;685;47.196;11.880;2022-08-19T05:06:30;17.60;99.90
1383;DHT22;685;47.196;11.880;2022-08-19T05:08:59;17.70;99.90
1383;DHT22;685;47.196;11.880;2022-08-19T05:11:33;17.90;99.90
1383;DHT22;685;47.196;11.880;2022-08-19T05:14:00;18.00;99.90
1383;DHT22;685;47.196;11.880;2022-08-19T05:16:27;18.00;99.90
1383;DHT22;685;47.196;11.880;2022-08-19T05:18:55;17.70;99.90
1383;DHT22;685;47.196;11.880;2022-08-19T05:21:42;17.60;99.90
1383;DHT22;685;47.196;11.880;2022-08-19T05:24:27;17.50;99.90
1383;DHT22;685;47.196;11.880;2022-08-19T05:26:55;17.60;99.90
1383;DHT22;685;47.196;11.880;2022-08-19T05:29:25;17.80;99.90
1383;DHT22;685;47.196;11.880;2022-08-19T05:31:53;17.90;99.90
1383;DHT22;685;47.196;11.880;2022-08-19T05:34:23;18.00;99.90
1383;DHT22;685;47.196;11.880;2022-08-19T05:36:55;17.80;99.90
1383;DHT22;685;47.196;11.880;2022-08-19T05:39:25;17.70;99.90
1383;DHT22;685;47.196;11.880;2022-08-19T05:41:54;17.90;99.90
1383;DHT22;685;47.196;11.880;2022-08-19T05:44:23;18.00;99.90
1383;DHT22;685;47.196;11.880;2022-08-19T05:46:50;17.90;99.90
1383;DHT22;685;47.196;11.880;2022-08-19T05:49:20;17.80;99.90
1383;DHT22;685;47.196;11.880;2022-08-19T05:51:48;17.50;99.90
1383;DHT22;685;47.196;11.880;2022-08-19T05:54:18;17.40;99.90
1383;DHT22;685;47.196;11.880;2022-08-19T05:56:46;17.40;99.90
1383;DHT22;685;47.196;11.880;2022-08-19T05:59:15;17.50;99.90
1383;DHT22;685;47.196;11.880;2022-08-19T06:01:44;17.70;99.90
1383;DHT22;685;47.196;11.880;2022-08-19T06:04:11;17.70;99.90
1383;DHT22;685;47.196;11.880;2022-08-19T06:06:39;17.70;99.90
1383;DHT22;685;47.196;11.880;2022-08-19T06:09:07;17.80;99.90
1383;DHT22;685;47.196;11.880;2022-08-19T06:11:39;17.80;99.90
1383;DHT22;685;47.196;11.880;2022-08-19T06:14:10;17.90;99.90
1383;DHT22;685;47.196;11.880;2022-08-19T06:16:39;17.80;99.90
1383;DHT22;685;47.196;11.880;2022-08-19T06:19:08;17.80;99.90
1383;DHT22;685;47.196;11.880;2022-08-19T06:21:37;17.80;99.90
1383;DHT22;685;47.196;11.880;2022-08-19T06:24:05;17.70;99.90
1383;DHT22;685;47.196;11.880;2022-08-19T06:26:34;17.70;99.90
1383;DHT22;685;47.196;11.880;2022-08-19T06:29:03;17.70;99.90
1383;DHT22;685;47.196;11.880;2022-08-19T06:31:32;17.70;99.90
1383;DHT22;685;47.196;11.880;2022-08-19T06:34:00;17.60;99.90
1383;DHT22;685;47.196;11.880;2022-08-19T06:36:30;17.30;99.90
1383;DHT22;685;47.196;11.880;2022-08-19T06:39:00;17.40;99.90
1383;DHT22;685;47.196;11.880;2022-08-19T06:41:28;17.70;99.90
1383;DHT22;685;47.196;11.880;2022-08-19T06:43:56;17.90;99.90
1383;DHT22;685;47.196;11.880;2022-08-19T06:46:25;17.90;99.90
1383;DHT22;685;47.196;11.880;2022-08-19T06:48:52;18.00;99.90
1383;DHT22;685;47.196;11.880;2022-08-19T06:51:21;17.90;99.90
1383;DHT22;685;47.196;11.880;2022-08-19T06:53:50;17.70;99.90
1383;DHT22;685;47.196;11.880;2022-08-19T06:56:19;17.30;99.90
1383;DHT22;685;47.196;11.880;2022-08-19T06:58:47;17.20;99.90
1383;DHT22;685;47.196;11.880;2022-08-19T07:01:18;17.60;99.90
1383;DHT22;685;47.196;11.880;2022-08-19T07:03:47;17.70;99.90
1383;DHT22;685;47.196;11.880;2022-08-19T07:06:16;17.80;99.90
1383;DHT22;685;47.196;11.880;2022-08-19T07:08:44;17.90;99.90
1383;DHT22;685;47.196;11.880;2022-08-19T07:11:13;18.10;99.90
1383;DHT22;685;47.196;11.880;2022-08-19T07:13:41;18.20;99.90
1383;DHT22;685;47.196;11.880;2022-08-19T07:16:13;18.20;99.90
1383;DHT22;685;47.196;11.880;2022-08-19T07:18:41;18.20;99.90
1383;DHT22;685;47.196;11.880;2022-08-19T07:21:14;18.50;99.90
1383;DHT22;685;47.196;11.880;2022-08-19T07:23:41;18.50;99.90
1383;DHT22;685;47.196;11.880;2022-08-19T07:26:10;18.50;99.90
1383;DHT22;685;47.196;11.880;2022-08-19T07:28:38;18.50;99.90
1383;DHT22;685;47.196;11.880;2022-08-19T07:31:06;18.50;99.90
1383;DHT22;685;47.196;11.880;2022-08-19T07:33:33;18.40;99.90
1383;DHT22;685;47.196;11.880;2022-08-19T07:36:03;18.50;99.90
1383;DHT22;685;47.196;11.880;2022-08-19T07:38:33;18.50;99.90
1383;DHT22;685;47.196;11.880;2022-08-19T07:41:00;18.60;99.90
1383;DHT22;685;47.196;11.880;2022-08-19T07:43:27;18.70;99.90
1383;DHT22;685;47.196;11.880;2022-08-19T07:45:55;18.90;99.90
1383;DHT22;685;47.196;11.880;2022-08-19T07:48:22;18.90;99.90
1383;DHT22;685;47.196;11.880;2022-08-19T07:50:51;19.00;99.90
1383;DHT22;685;47.196;11.880;2022-08-19T07:53:18;19.00;99.90
1383;DHT22;685;47.196;11.880;2022-08-19T07:55:47;19.00;99.90
1383;DHT22;685;47.196;11.880;2022-08-19T07:58:17;19.00;99.90
1383;DHT22;685;47.196;11.880;2022-08-19T08:00:45;18.80;99.90
1383;DHT22;685;47.196;11.880;2022-08-19T08:03:14;19.00;99.90
1383;DHT22;685;47.196;11.880;2022-08-19T08:05:42;19.10;99.90
1383;DHT22;685;47.196;11.880;2022-08-19T08:08:27;18.70;99.90
1383;DHT22;685;47.196;11.880;2022-08-19T08:11:13;18.40;99.90
1383;DHT22;685;47.196;11.880;2022-08-19T08:13:40;18.30;99.90
1383;DHT22;685;47.196;11.880;2022-08-19T08:16:07;18.20;99.90
1383;DHT22;685;47.196;11.880;2022-08-19T08:18:35;18.60;99.90
1383;DHT22;685;47.196;11.880;2022-08-19T08:21:07;18.60;99.90
1383;DHT22;685;47.196;11.880;2022-08-19T08:23:34;18.60;99.90
1383;DHT22;685;47.196;11.880;2022-08-19T08:26:01;18.70;99.90
1383;DHT22;685;47.196;11.880;2022-08-19T08:28:31;18.90;99.90
1383;DHT22;685;47.196;11.880;2022-08-19T08:30:58;19.20;99.90
1383;DHT22;685;47.196;11.880;2022-08-19T08:33:28;19.30;99.90
1383;DHT22;685;47.196;11.880;2022-08-19T08:35:56;19.40;99.90
1383;DHT22;685;47.196;11.880;2022-08-19T08:38:23;19.50;99.90
1383;DHT22;685;47.196;11.880;2022-08-19T08:40:53;19.70;99.90
1383;DHT22;685;47.196;11.880;2022-08-19T08:43:35;19.90;99.90
1383;DHT22;685;47.196;11.880;2022-08-19T08:46:07;20.10;99.90
1383;DHT22;685;47.196;11.880;2022-08-19T08:48:38;20.10;99.90
1383;DHT22;685;47.196;11.880;2022-08-19T08:51:10;19.90;99.90
1383;DHT22;685;47.196;11.880;2022-08-19T08:53:38;20.00;99.90
1383;DHT22;685;47.196;11.880;2022-08-19T08:56:08;20.10;99.90
1383;DHT22;685;47.196;11.880;2022-08-19T08:58:47;20.20;99.90
1383;DHT22;685;47.196;11.880;2022-08-19T09:01:15;20.40;99.90
1383;DHT22;685;47.196;11.880;2022-08-19T09:03:43;20.60;99.90
1383;DHT22;685;47.196;11.880;2022-08-19T09:06:22;20.60;99.90
1383;DHT22;685;47.196;11.880;2022-08-19T09:09:01;20.60;99.90
1383;DHT22;685;47.196;11.880;2022-08-19T09:11:40;20.50;99.90
1383;DHT22;685;47.196;11.880;2022-08-19T09:14:18;20.60;99.90
1383;DHT22;685;47.196;11.880;2022-08-19T09:16:48;20.60;99.90
1383;DHT22;685;47.196;11.880;2022-08-19T09:19:16;20.70;99.90
1383;DHT22;685;47.196;11.880;2022-08-19T09:21:43;20.60;99.90
1383;DHT22;685;47.196;11.880;2022-08-19T09:24:11;20.70;99.90
1383;DHT22;685;47.196;11.880;2022-08-19T09:26:37;20.80;99.90
1383;DHT22;685;47.196;11.880;2022-08-19T09:29:04;20.90;99.90
1383;DHT22;685;47.196;11.880;2022-08-19T09:31:33;21.10;99.90
1383;DHT22;685;47.196;11.880;2022-08-19T09:36:28;21.30;99.90
1383;DHT22;685;47.196;11.880;2022-08-19T09:38:59;21.60;99.90
1383;DHT22;685;47.196;11.880;2022-08-19T09:41:26;21.60;99.90
1383;DHT22;685;47.196;11.880;2022-08-19T09:43:55;21.80;99.90
1383;DHT22;685;47.196;11.880;2022-08-19T09:46:24;21.70;99.90
1383;DHT22;685;47.196;11.880;2022-08-19T09:48:53;21.70;99.90
1383;DHT22;685;47.196;11.880;2022-08-19T09:51:24;21.70;99.90
1383;DHT22;685;47.196;11.880;2022-08-19T09:53:55;21.70;99.90
1383;DHT22;685;47.196;11.880;2022-08-19T09:56:25;21.60;99.90
1383;DHT22;685;47.196;11.880;2022-08-19T09:58:51;21.60;99.90
1383;DHT22;685;47.196;11.880;2022-08-19T10:01:21;21.40;99.90
1383;DHT22;685;47.196;11.880;2022-08-19T10:03:50;21.40;99.90
1383;DHT22;685;47.196;11.880;2022-08-19T10:06:19;21.00;99.90
1383;DHT22;685;47.196;11.880;2022-08-19T10:08:47;21.00;99.90
1383;DHT22;685;47.196;11.880;2022-08-19T10:11:14;21.20;99.90
1383;DHT22;685;47.196;11.880;2022-08-19T10:13:43;21.70;99.90
1383;DHT22;685;47.196;11.880;2022-08-19T10:16:12;21.60;99.90
1383;DHT22;685;47.196;11.880;2022-08-19T10:18:40;21.80;99.90
1383;DHT22;685;47.196;11.880;2022-08-19T10:21:11;21.80;99.90
1383;DHT22;685;47.196;11.880;2022-08-19T10:23:42;21.40;99.90
1383;DHT22;685;47.196;11.880;2022-08-19T10:26:14;21.80;99.90
1383;DHT22;685;47.196;11.880;2022-08-19T10:28:42;21.90;99.90
1383;DHT22;685;47.196;11.880;2022-08-19T10:31:11;21.90;99.90
1383;DHT22;685;47.196;11.880;2022-08-19T10:33:38;22.10;99.90
1383;DHT22;685;47.196;11.880;2022-08-19T10:36:08;22.00;99.90
1383;DHT22;685;47.196;11.880;2022-08-19T10:38:36;21.70;99.90
1383;DHT22;685;47.196;11.880;2022-08-19T10:41:10;21.90;99.90
1383;DHT22;685;47.196;11.880;2022-08-19T10:43:37;22.10;99.90
1383;DHT22;685;47.196;11.880;2022-08-19T10:46:06;21.90;99.90
1383;DHT22;685;47.196;11.880;2022-08-19T10:48:33;22.00;99.90
1383;DHT22;685;47.196;11.880;2022-08-19T10:51:01;22.20;99.90
1383;DHT22;685;47.196;11.880;2022-08-19T10:53:45;22.00;99.90
1383;DHT22;685;47.196;11.880;2022-08-19T10:56:14;21.50;99.90
1383;DHT22;685;47.196;11.880;2022-08-19T10:58:59;22.10;99.90
1383;DHT22;685;47.196;11.880;2022-08-19T11:01:27;22.30;99.90
1383;DHT22;685;47.196;11.880;2022-08-19T11:03:55;22.40;99.90
1383;DHT22;685;47.196;11.880;2022-08-19T11:06:23;22.40;99.90
1383;DHT22;685;47.196;11.880;2022-08-19T11:08:50;22.40;99.90
1383;DHT22;685;47.196;11.880;2022-08-19T11:11:19;22.80;99.90
1383;DHT22;685;47.196;11.880;2022-08-19T11:13:47;22.80;99.90
1383;DHT22;685;47.196;11.880;2022-08-19T11:16:18;22.90;99.90
1383;DHT22;685;47.196;11.880;2022-08-19T11:18:48;22.80;99.90
1383;DHT22;685;47.196;11.880;2022-08-19T11:21:17;22.80;99.90
1383;DHT22;685;47.196;11.880;2022-08-19T11:23:46;22.70;99.90
1383;DHT22;685;47.196;11.880;2022-08-19T11:26:14;22.70;99.90
1383;DHT22;685;47.196;11.880;2022-08-19T11:28:43;22.70;99.90
1383;DHT22;685;47.196;11.880;2022-08-19T11:31:11;22.90;99.90
1383;DHT22;685;47.196;11.880;2022-08-19T11:33:38;22.90;99.90
1383;DHT22;685;47.196;11.880;2022-08-19T11:36:05;23.00;99.90
1383;DHT22;685;47.196;11.880;2022-08-19T11:38:33;22.90;99.90
1383;DHT22;685;47.196;11.880;2022-08-19T11:41:05;23.00;99.90
1383;DHT22;685;47.196;11.880;2022-08-19T11:43:32;23.10;99.90
1383;DHT22;685;47.196;11.880;2022-08-19T11:46:03;23.10;99.90
1383;DHT22;685;47.196;11.880;2022-08-19T11:48:32;23.00;99.90
1383;DHT22;685;47.196;11.880;2022-08-19T11:51:02;23.00;99.90
1383;DHT22;685;47.196;11.880;2022-08-19T11:53:31;23.30;99.90
1383;DHT22;685;47.196;11.880;2022-08-19T11:55:59;23.30;99.90
1383;DHT22;685;47.196;11.880;2022-08-19T11:58:26;23.20;99.90
1383;DHT22;685;47.196;11.880;2022-08-19T12:00:55;23.10;99.90
1383;DHT22;685;47.196;11.880;2022-08-19T12:03:24;23.00;99.90
1383;DHT22;685;47.196;11.880;2022-08-19T12:05:51;23.00;99.90
1383;DHT22;685;47.196;11.880;2022-08-19T12:08:18;22.90;99.90
1383;DHT22;685;47.196;11.880;2022-08-19T12:10:45;23.00;99.90
1383;DHT22;685;47.196;11.880;2022-08-19T12:13:13;23.30;99.90
1383;DHT22;685;47.196;11.880;2022-08-19T12:15:44;23.40;99.90
1383;DHT22;685;47.196;11.880;2022-08-19T12:18:12;23.40;99.90
1383;DHT22;685;47.196;11.880;2022-08-19T12:20:42;23.40;99.90
1383;DHT22;685;47.196;11.880;2022-08-19T12:23:11;23.40;99.90
1383;DHT22;685;47.196;11.880;2022-08-19T12:25:45;23.40;99.90
1383;DHT22;685;47.196;11.880;2022-08-19T12:28:18;23.30;99.90
1383;DHT22;685;47.196;11.880;2022-08-19T12:30:45;23.30;99.90
1383;DHT22;685;47.196;11.880;2022-08-19T12:33:13;23.30;99.90
1383;DHT22;685;47.196;11.880;2022-08-19T12:35:42;23.30;99.90
1383;DHT22;685;47.196;11.880;2022-08-19T12:38:09;23.20;99.90
1383;DHT22;685;47.196;11.880;2022-08-19T12:40:36;23.00;99.90
1383;DHT22;685;47.196;11.880;2022-08-19T12:43:05;22.80;99.90
1383;DHT22;685;47.196;11.880;2022-08-19T12:45:32;22.90;99.90
1383;DHT22;685;47.196;11.880;2022-08-19T12:48:00;22.90;99.90
1383;DHT22;685;47.196;11.880;2022-08-19T12:50:26;23.00;99.90
1383;DHT22;685;47.196;11.880;2022-08-19T12:52:56;23.00;99.90
1383;DHT22;685;47.196;11.880;2022-08-19T12:55:23;23.10;99.90
1383;DHT22;685;47.196;11.880;2022-08-19T12:57:50;23.20;99.90
1383;DHT22;685;47.196;11.880;2022-08-19T13:00:19;23.30;99.90
1383;DHT22;685;47.196;11.880;2022-08-19T13:02:48;23.20;99.90
1383;DHT22;685;47.196;11.880;2022-08-19T13:05:17;23.20;99.90
1383;DHT22;685;47.196;11.880;2022-08-19T13:07:46;23.20;99.90
1383;DHT22;685;47.196;11.880;2022-08-19T13:10:17;23.00;99.90
1383;DHT22;685;47.196;11.880;2022-08-19T13:12:46;23.00;99.90
1383;DHT22;685;47.196;11.880;2022-08-19T13:15:15;22.80;99.90
1383;DHT22;685;47.196;11.880;2022-08-19T13:17:43;22.90;99.90
1383;DHT22;685;47.196;11.880;2022-08-19T13:20:11;22.90;99.90
1383;DHT22;685;47.196;11.880;2022-08-19T13:22:38;23.00;99.90
1383;DHT22;685;47.196;11.880;2022-08-19T13:25:06;23.00;99.90
1383;DHT22;685;47.196;11.880;2022-08-19T13:27:35;23.10;99.90
1383;DHT22;685;47.196;11.880;2022-08-19T13:30:03;23.00;99.90
1383;DHT22;685;47.196;11.880;2022-08-19T13:32:48;23.10;99.90
1383;DHT22;685;47.196;11.880;2022-08-19T13:35:32;23.00;99.90
1383;DHT22;685;47.196;11.880;2022-08-19T13:37:59;23.20;99.90
1383;DHT22;685;47.196;11.880;2022-08-19T13:40:31;23.10;99.90
1383;DHT22;685;47.196;11.880;2022-08-19T13:43:02;23.20;99.90
1383;DHT22;685;47.196;11.880;2022-08-19T13:45:31;23.20;99.90
1383;DHT22;685;47.196;11.880;2022-08-19T13:48:00;23.40;99.90
1383;DHT22;685;47.196;11.880;2022-08-19T13:50:31;23.30;99.90
1383;DHT22;685;47.196;11.880;2022-08-19T13:52:58;23.50;99.90
1383;DHT22;685;47.196;11.880;2022-08-19T13:55:25;23.50;99.90
1383;DHT22;685;47.196;11.880;2022-08-19T13:57:53;23.50;99.90
1383;DHT22;685;47.196;11.880;2022-08-19T14:00:23;23.60;99.90
1383;DHT22;685;47.196;11.880;2022-08-19T14:02:53;23.70;99.90
1383;DHT22;685;47.196;11.880;2022-08-19T14:05:21;23.50;99.90
1383;DHT22;685;47.196;11.880;2022-08-19T14:07:48;23.30;99.90
1383;DHT22;685;47.196;11.880;2022-08-19T14:10:15;23.30;99.90
1383;DHT22;685;47.196;11.880;2022-08-19T14:12:43;23.10;99.90
1383;DHT22;685;47.196;11.880;2022-08-19T14:15:11;23.10;99.90
1383;DHT22;685;47.196;11.880;2022-08-19T14:17:42;23.00;99.90
1383;DHT22;685;47.196;11.880;2022-08-19T14:20:10;22.90;99.90
1383;DHT22;685;47.196;11.880;2022-08-19T14:22:39;22.90;99.90
1383;DHT22;685;47.196;11.880;2022-08-19T14:25:09;22.90;99.90
1383;DHT22;685;47.196;11.880;2022-08-19T14:27:38;22.90;99.90
1383;DHT22;685;47.196;11.880;2022-08-19T14:30:08;22.80;99.90
1383;DHT22;685;47.196;11.880;2022-08-19T14:32:35;22.70;99.90
1383;DHT22;685;47.196;11.880;2022-08-19T14:35:05;22.40;99.90
1383;DHT22;685;47.196;11.880;2022-08-19T14:37:33;22.40;99.90
1383;DHT22;685;47.196;11.880;2022-08-19T14:40:00;22.40;99.90
1383;DHT22;685;47.196;11.880;2022-08-19T14:42:27;22.50;99.90
1383;DHT22;685;47.196;11.880;2022-08-19T14:44:57;22.30;99.90
1383;DHT22;685;47.196;11.880;2022-08-19T14:47:25;22.30;99.90
1383;DHT22;685;47.196;11.880;2022-08-19T14:49:52;22.20;99.90
1383;DHT22;685;47.196;11.880;2022-08-19T14:52:21;22.10;99.90
1383;DHT22;685;47.196;11.880;2022-08-19T14:54:50;22.10;99.90
1383;DHT22;685;47.196;11.880;2022-08-19T14:57:17;22.10;99.90
1383;DHT22;685;47.196;11.880;2022-08-19T14:59:44;22.00;99.90
1383;DHT22;685;47.196;11.880;2022-08-19T15:02:12;22.00;99.90
1383;DHT22;685;47.196;11.880;2022-08-19T15:04:39;21.60;99.90
1383;DHT22;685;47.196;11.880;2022-08-19T15:07:06;21.70;99.90
1383;DHT22;685;47.196;11.880;2022-08-19T15:09:34;21.70;99.90
1383;DHT22;685;47.196;11.880;2022-08-19T15:12:01;21.50;99.90
1383;DHT22;685;47.196;11.880;2022-08-19T15:14:30;21.30;99.90
1383;DHT22;685;47.196;11.880;2022-08-19T15:17:00;21.30;99.90
1383;DHT22;685;47.196;11.880;2022-08-19T15:19:28;21.00;99.90
1383;DHT22;685;47.196;11.880;2022-08-19T15:21:55;20.50;99.90
1383;DHT22;685;47.196;11.880;2022-08-19T15:24:25;20.30;99.90
1383;DHT22;685;47.196;11.880;2022-08-19T15:26:54;20.30;99.90
1383;DHT22;685;47.196;11.880;2022-08-19T15:29:21;20.10;99.90
1383;DHT22;685;47.196;11.880;2022-08-19T15:31:50;20.10;99.90
1383;DHT22;685;47.196;11.880;2022-08-19T15:34:17;20.10;99.90
1383;DHT22;685;47.196;11.880;2022-08-19T15:36:44;19.90;99.90
1383;DHT22;685;47.196;11.880;2022-08-19T15:39:11;19.90;99.90
1383;DHT22;685;47.196;11.880;2022-08-19T15:41:38;19.90;99.90
1383;DHT22;685;47.196;11.880;2022-08-19T15:44:09;19.80;99.90
1383;DHT22;685;47.196;11.880;2022-08-19T15:46:37;19.30;99.90
1383;DHT22;685;47.196;11.880;2022-08-19T15:49:05;19.20;99.90
1383;DHT22;685;47.196;11.880;2022-08-19T15:51:34;19.20;99.90
1383;DHT22;685;47.196;11.880;2022-08-19T15:54:02;19.40;99.90
1383;DHT22;685;47.196;11.880;2022-08-19T15:56:29;19.50;99.90
1383;DHT22;685;47.196;11.880;2022-08-19T15:59:23;19.50;99.90
1383;DHT22;685;47.196;11.880;2022-08-19T16:02:08;19.20;99.90
1383;DHT22;685;47.196;11.880;2022-08-19T16:04:52;19.10;99.90
1383;DHT22;685;47.196;11.880;2022-08-19T16:07:37;19.10;99.90
1383;DHT22;685;47.196;11.880;2022-08-19T16:10:05;19.20;99.90
1383;DHT22;685;47.196;11.880;2022-08-19T16:12:32;19.10;99.90
1383;DHT22;685;47.196;11.880;2022-08-19T16:15:01;19.00;99.90
1383;DHT22;685;47.196;11.880;2022-08-19T16:17:28;19.00;99.90